createdAt,value
2022-09-25T00:01:22.071Z,14.30
2022-09-25T00:03:48.933Z,14.30
2022-09-25T00:06:21.762Z,14.30
2022-09-25T00:08:49.137Z,14.30
2022-09-25T00:11:21.861Z,14.30
2022-09-25T00:13:48.772Z,14.30
2022-09-25T00:16:19.502Z,14.30
2022-09-25T00:19:08.046Z,14.30
2022-09-25T00:21:37.731Z,14.20
2022-09-25T00:24:08.632Z,14.20
2022-09-25T00:26:38.653Z,14.20
2022-09-25T00:29:10.686Z,14.20
2022-09-25T00:31:37.472Z,14.20
2022-09-25T00:34:05.960Z,14.30
2022-09-25T00:36:38.320Z,14.30
2022-09-25T00:39:05.754Z,14.20
2022-09-25T00:41:34.954Z,14.20
2022-09-25T00:44:03.837Z,14.20
2022-09-25T00:46:40.878Z,14.20
2022-09-25T00:49:14.800Z,14.20
2022-09-25T00:51:59.530Z,14.10
2022-09-25T00:54:31.556Z,14.10
2022-09-25T00:57:03.376Z,14.10
2022-09-25T00:59:37.392Z,14.10
2022-09-25T01:02:04.494Z,14.20
2022-09-25T01:04:34.563Z,14.20
2022-09-25T01:07:02.962Z,14.20
2022-09-25T01:09:30.174Z,14.20
2022-09-25T01:11:57.002Z,14.20
2022-09-25T01:14:26.866Z,14.20
2022-09-25T01:17:01.079Z,14.20
2022-09-25T01:19:38.248Z,14.20
2022-09-25T01:22:22.380Z,14.20
2022-09-25T01:25:12.487Z,14.10
2022-09-25T01:28:16.530Z,14.20
2022-09-25T01:30:50.755Z,14.20
2022-09-25T01:33:25.026Z,14.20
2022-09-25T01:36:01.282Z,14.20
2022-09-25T01:38:34.303Z,14.20
2022-09-25T01:41:27.536Z,14.10
2022-09-25T01:44:23.471Z,14.10
2022-09-25T01:46:53.880Z,14.10
2022-09-25T01:49:32.628Z,14.10
2022-09-25T01:52:01.628Z,14.00
2022-09-25T01:54:43.281Z,14.00
2022-09-25T01:57:21.813Z,14.00
2022-09-25T01:59:56.386Z,14.00
2022-09-25T02:02:27.582Z,14.00
2022-09-25T02:05:07.947Z,14.00
2022-09-25T02:07:43.808Z,14.10
2022-09-25T02:10:19.880Z,14.00
2022-09-25T02:12:54.081Z,14.00
2022-09-25T02:15:30.867Z,14.00
2022-09-25T02:18:22.990Z,14.00
2022-09-25T02:20:59.394Z,14.00
2022-09-25T02:23:38.662Z,14.00
2022-09-25T02:26:14.664Z,14.00
2022-09-25T02:28:42.771Z,13.90
2022-09-25T02:31:13.792Z,13.90
2022-09-25T02:33:40.897Z,13.90
2022-09-25T02:36:07.764Z,13.90
2022-09-25T02:38:35.680Z,13.80
2022-09-25T02:41:22.773Z,13.80
2022-09-25T02:44:29.743Z,13.80
2022-09-25T02:47:15.477Z,13.80
2022-09-25T02:49:44.277Z,13.80
2022-09-25T02:52:31.462Z,13.80
2022-09-25T02:55:12.065Z,13.80
2022-09-25T02:57:47.237Z,13.80
2022-09-25T03:00:14.982Z,13.80
2022-09-25T03:02:48.169Z,13.80
2022-09-25T03:05:16.877Z,13.80
2022-09-25T03:08:02.498Z,13.80
2022-09-25T03:10:31.548Z,13.80
2022-09-25T03:13:20.850Z,13.80
2022-09-25T03:15:51.918Z,13.80
2022-09-25T03:18:19.068Z,13.80
2022-09-25T03:20:46.030Z,13.80
2022-09-25T03:23:13.960Z,13.80
2022-09-25T03:25:42.779Z,13.80
2022-09-25T03:28:15.627Z,13.80
2022-09-25T03:30:42.523Z,13.80
2022-09-25T03:33:11.485Z,13.80
2022-09-25T03:35:42.743Z,13.80
2022-09-25T03:38:10.327Z,13.80
2022-09-25T03:40:37.287Z,13.80
2022-09-25T03:45:30.108Z,13.70
2022-09-25T03:47:56.927Z,13.70
2022-09-25T03:50:25.843Z,13.70
2022-09-25T03:52:55.235Z,13.70
2022-09-25T03:55:22.394Z,13.70
2022-09-25T03:57:51.432Z,13.70
2022-09-25T04:00:18.305Z,13.60
2022-09-25T04:02:45.213Z,13.60
2022-09-25T04:05:15.081Z,13.70
2022-09-25T04:07:41.846Z,13.70
2022-09-25T04:10:11.642Z,13.70
2022-09-25T04:12:38.398Z,13.70
2022-09-25T04:15:08.916Z,13.70
2022-09-25T04:17:35.863Z,13.70
2022-09-25T04:20:04.931Z,13.70
2022-09-25T04:22:33.871Z,13.70
2022-09-25T04:25:00.621Z,13.70
2022-09-25T04:27:30.694Z,13.70
2022-09-25T04:29:57.713Z,13.60
2022-09-25T04:32:43.059Z,13.60
2022-09-25T04:35:09.903Z,13.60
2022-09-25T04:37:39.229Z,13.60
2022-09-25T04:40:06.736Z,13.60
2022-09-25T04:42:33.680Z,13.60
2022-09-25T04:45:00.433Z,13.60
2022-09-25T04:47:30.077Z,13.60
2022-09-25T04:49:57.137Z,13.60
2022-09-25T04:52:26.133Z,13.60
2022-09-25T04:54:57.649Z,13.60
2022-09-25T04:57:53.466Z,13.60
2022-09-25T05:00:17.148Z,13.60
2022-09-25T05:02:44.057Z,13.60
2022-09-25T05:05:11.017Z,13.60
2022-09-25T05:07:38.756Z,13.60
2022-09-25T05:10:08.490Z,13.60
2022-09-25T05:12:37.886Z,13.60
2022-09-25T05:15:05.175Z,13.60
2022-09-25T05:17:36.470Z,13.60
2022-09-25T05:20:03.629Z,13.50
2022-09-25T05:22:30.478Z,13.60
2022-09-25T05:24:59.105Z,13.50
2022-09-25T05:27:32.580Z,13.60
2022-09-25T05:30:02.369Z,13.50
2022-09-25T05:32:30.970Z,13.50
2022-09-25T05:35:00.029Z,13.50
2022-09-25T05:37:29.097Z,13.60
2022-09-25T05:39:55.983Z,13.60
2022-09-25T05:42:23.266Z,13.60
2022-09-25T05:44:52.376Z,13.60
2022-09-25T05:47:21.755Z,13.60
2022-09-25T05:49:50.822Z,13.60
2022-09-25T05:52:19.699Z,13.60
2022-09-25T05:54:46.783Z,13.70
2022-09-25T05:57:13.538Z,13.70
2022-09-25T05:59:40.854Z,13.70
2022-09-25T06:02:11.952Z,13.80
2022-09-25T06:04:38.671Z,13.80
2022-09-25T06:07:05.704Z,13.80
2022-09-25T06:09:32.658Z,13.80
2022-09-25T06:11:59.424Z,13.80
2022-09-25T06:14:28.882Z,13.80
2022-09-25T06:16:55.744Z,13.80
2022-09-25T06:19:24.803Z,13.80
2022-09-25T06:21:51.584Z,13.80
2022-09-25T06:24:18.393Z,13.90
2022-09-25T06:26:47.592Z,13.90
2022-09-25T06:29:14.423Z,13.90
2022-09-25T06:31:41.391Z,14.00
2022-09-25T06:34:12.451Z,13.90
2022-09-25T06:36:42.407Z,13.90
2022-09-25T06:39:09.237Z,13.90
2022-09-25T06:41:36.730Z,13.90
2022-09-25T06:44:03.589Z,13.90
2022-09-25T06:46:30.641Z,13.90
2022-09-25T06:48:57.865Z,13.90
2022-09-25T06:51:28.872Z,13.90
2022-09-25T06:53:55.814Z,13.90
2022-09-25T06:56:25.237Z,13.90
2022-09-25T06:58:54.873Z,14.00
2022-09-25T07:01:21.823Z,14.00
2022-09-25T07:03:49.780Z,14.00
2022-09-25T07:06:26.044Z,14.00
2022-09-25T07:08:52.914Z,14.00
2022-09-25T07:11:22.109Z,14.00
2022-09-25T07:13:52.338Z,14.10
2022-09-25T07:16:20.473Z,14.10
2022-09-25T07:18:47.722Z,14.10
2022-09-25T07:21:20.236Z,14.10
2022-09-25T07:23:51.555Z,14.10
2022-09-25T07:26:22.512Z,14.20
2022-09-25T07:28:54.028Z,14.20
2022-09-25T07:31:24.464Z,14.30
2022-09-25T07:33:51.709Z,14.30
2022-09-25T07:36:21.855Z,14.40
2022-09-25T07:38:52.690Z,14.40
2022-09-25T07:41:22.365Z,14.40
2022-09-25T07:44:40.046Z,14.50
2022-09-25T07:46:46.317Z,14.50
2022-09-25T07:49:14.051Z,14.50
2022-09-25T07:51:40.833Z,14.60
2022-09-25T07:54:07.765Z,14.60
2022-09-25T07:56:34.840Z,14.60
2022-09-25T07:59:06.315Z,14.70
2022-09-25T08:01:38.327Z,14.70
2022-09-25T08:04:09.593Z,14.70
2022-09-25T08:06:36.827Z,14.80
2022-09-25T08:09:08.100Z,14.80
2022-09-25T08:11:37.594Z,14.80
2022-09-25T08:14:04.464Z,14.80
2022-09-25T08:16:33.568Z,14.80
2022-09-25T08:19:00.363Z,14.80
2022-09-25T08:21:27.216Z,14.80
2022-09-25T08:23:57.070Z,14.80
2022-09-25T08:26:23.937Z,14.90
2022-09-25T08:28:51.526Z,15.10
2022-09-25T08:31:21.623Z,15.20
2022-09-25T08:33:50.004Z,15.50
2022-09-25T08:36:22.046Z,15.70
2022-09-25T08:38:48.927Z,15.70
2022-09-25T08:41:18.453Z,15.60
2022-09-25T08:43:54.166Z,15.70
2022-09-25T08:46:50.556Z,15.80
2022-09-25T08:49:26.236Z,15.70
2022-09-25T08:51:59.574Z,15.60
2022-09-25T08:54:29.391Z,15.50
2022-09-25T08:57:01.630Z,15.50
2022-09-25T08:59:34.135Z,15.50
2022-09-25T09:02:09.434Z,15.50
2022-09-25T09:04:43.979Z,15.60
2022-09-25T09:07:27.571Z,15.70
2022-09-25T09:10:09.038Z,15.80
2022-09-25T09:12:44.993Z,15.80
2022-09-25T09:15:36.451Z,15.90
2022-09-25T09:18:19.333Z,15.90
2022-09-25T09:20:55.225Z,16.00
2022-09-25T09:23:36.284Z,16.00
2022-09-25T09:26:16.714Z,16.00
2022-09-25T09:29:16.664Z,16.00
2022-09-25T09:32:11.186Z,16.00
2022-09-25T09:35:05.587Z,16.10
2022-09-25T09:37:36.389Z,16.20
2022-09-25T09:40:22.041Z,16.30
2022-09-25T09:43:09.112Z,16.40
2022-09-25T09:45:44.176Z,16.90
2022-09-25T09:48:23.002Z,17.20
2022-09-25T09:50:53.449Z,17.40
2022-09-25T09:53:32.105Z,17.40
2022-09-25T09:56:24.485Z,17.40
2022-09-25T09:58:59.399Z,17.50
2022-09-25T10:01:42.689Z,17.70
2022-09-25T10:04:14.007Z,17.60
2022-09-25T10:06:59.233Z,17.60
2022-09-25T10:09:28.343Z,17.50
2022-09-25T10:12:07.489Z,17.50
2022-09-25T10:14:47.545Z,17.50
2022-09-25T10:17:15.821Z,17.40
2022-09-25T10:20:08.062Z,17.40
2022-09-25T10:22:40.342Z,17.40
2022-09-25T10:25:09.687Z,17.40
2022-09-25T10:27:41.776Z,17.50
2022-09-25T10:30:14.050Z,17.50
2022-09-25T10:33:00.933Z,17.50
2022-09-25T10:35:39.864Z,17.50
2022-09-25T10:38:30.905Z,17.50
2022-09-25T10:41:03.039Z,17.40
2022-09-25T10:43:30.174Z,17.40
2022-09-25T10:46:12.689Z,17.40
2022-09-25T10:48:59.057Z,17.30
2022-09-25T10:51:26.713Z,17.20
2022-09-25T10:54:16.428Z,17.20
2022-09-25T10:56:44.094Z,17.20
2022-09-25T10:59:15.869Z,17.20
2022-09-25T11:01:43.910Z,17.20
2022-09-25T11:04:21.627Z,17.30
2022-09-25T11:06:53.091Z,17.40
2022-09-25T11:09:24.243Z,17.40
2022-09-25T11:11:53.894Z,17.50
2022-09-25T11:14:28.621Z,17.60
2022-09-25T11:16:58.071Z,17.60
2022-09-25T11:19:31.339Z,17.60
2022-09-25T11:22:00.656Z,17.60
2022-09-25T11:25:11.331Z,17.60
2022-09-25T11:27:49.094Z,17.60
2022-09-25T11:30:19.458Z,17.60
2022-09-25T11:33:23.502Z,17.60
2022-09-25T11:36:08.656Z,17.60
2022-09-25T11:39:13.607Z,17.60
2022-09-25T11:42:07.159Z,17.60
2022-09-25T11:44:39.731Z,17.60
2022-09-25T11:47:21.030Z,17.70
2022-09-25T11:49:53.184Z,17.70
2022-09-25T11:52:19.998Z,17.80
2022-09-25T11:55:17.417Z,17.80
2022-09-25T11:57:49.550Z,17.90
2022-09-25T12:00:34.252Z,17.90
2022-09-25T12:03:32.185Z,17.90
2022-09-25T12:06:41.763Z,17.90
2022-09-25T12:09:16.192Z,17.80
2022-09-25T12:12:02.141Z,17.80
2022-09-25T12:14:38.055Z,17.80
2022-09-25T12:17:22.791Z,17.80
2022-09-25T12:19:58.912Z,17.80
2022-09-25T12:22:54.625Z,17.90
2022-09-25T12:25:21.318Z,17.90
2022-09-25T12:28:27.845Z,17.90
2022-09-25T12:31:24.772Z,17.80
2022-09-25T12:33:58.896Z,17.80
2022-09-25T12:36:35.469Z,17.80
2022-09-25T12:39:29.951Z,17.80
2022-09-25T12:42:07.452Z,17.80
2022-09-25T12:44:47.433Z,17.90
2022-09-25T12:47:24.316Z,17.90
2022-09-25T12:50:16.510Z,17.90
2022-09-25T12:53:12.313Z,17.90
2022-09-25T12:55:58.695Z,17.90
2022-09-25T12:58:37.419Z,17.90
2022-09-25T13:01:26.490Z,17.90
2022-09-25T13:04:04.766Z,17.90
2022-09-25T13:06:51.812Z,17.90
2022-09-25T13:09:22.700Z,17.90
2022-09-25T13:11:51.765Z,17.90
2022-09-25T13:14:29.111Z,18.00
2022-09-25T13:16:58.773Z,18.10
2022-09-25T13:19:33.015Z,18.20
2022-09-25T13:22:10.441Z,18.20
2022-09-25T13:24:44.938Z,18.20
2022-09-25T13:27:19.000Z,18.20
2022-09-25T13:29:59.139Z,18.20
2022-09-25T13:32:34.560Z,18.30
2022-09-25T13:35:07.932Z,18.30
2022-09-25T13:37:37.825Z,18.40
2022-09-25T13:40:45.046Z,18.40
2022-09-25T13:43:26.756Z,18.50
2022-09-25T13:46:21.495Z,18.40
2022-09-25T13:48:52.369Z,18.50
2022-09-25T13:51:22.352Z,18.50
2022-09-25T13:54:03.719Z,18.50
2022-09-25T13:56:33.684Z,18.50
2022-09-25T13:59:19.147Z,18.50
2022-09-25T14:01:54.773Z,18.50
2022-09-25T14:04:38.266Z,18.50
2022-09-25T14:07:15.026Z,18.50
2022-09-25T14:09:50.655Z,18.50
2022-09-25T14:12:32.649Z,18.50
2022-09-25T14:15:06.077Z,18.50
2022-09-25T14:17:35.758Z,18.40
2022-09-25T14:20:19.534Z,18.40
2022-09-25T14:22:53.988Z,18.40
2022-09-25T14:25:27.474Z,18.40
2022-09-25T14:27:55.307Z,18.40
2022-09-25T14:30:22.266Z,18.50
2022-09-25T14:33:01.804Z,18.50
2022-09-25T14:35:40.705Z,18.50
2022-09-25T14:39:14.445Z,18.50
2022-09-25T14:42:03.076Z,18.40
2022-09-25T14:44:37.706Z,18.40
2022-09-25T14:47:09.782Z,18.30
2022-09-25T14:49:40.864Z,18.30
2022-09-25T14:52:16.179Z,18.20
2022-09-25T14:54:51.384Z,18.10
2022-09-25T14:57:28.026Z,18.10
2022-09-25T15:00:00.643Z,18.10
2022-09-25T15:02:44.970Z,18.10
2022-09-25T15:05:37.589Z,18.10
2022-09-25T15:08:23.101Z,18.10
2022-09-25T15:11:02.327Z,18.10
2022-09-25T15:13:34.190Z,18.10
2022-09-25T15:16:21.017Z,18.10
2022-09-25T15:18:54.269Z,18.00
2022-09-25T15:21:23.551Z,18.00
2022-09-25T15:23:52.119Z,18.00
2022-09-25T15:26:19.207Z,17.90
2022-09-25T15:28:49.123Z,17.80
2022-09-25T15:31:18.507Z,17.80
2022-09-25T15:34:01.496Z,17.70
2022-09-25T15:36:30.827Z,17.70
2022-09-25T15:39:02.985Z,17.70
2022-09-25T15:41:32.551Z,17.60
2022-09-25T15:44:23.926Z,17.60
2022-09-25T15:47:00.654Z,17.60
2022-09-25T15:49:38.766Z,17.60
2022-09-25T15:52:21.889Z,17.60
2022-09-25T15:54:49.242Z,17.60
2022-09-25T15:57:24.844Z,17.70
2022-09-25T16:00:13.154Z,17.70
2022-09-25T16:03:07.441Z,17.60
2022-09-25T16:05:35.888Z,17.60
2022-09-25T16:08:24.536Z,17.50
2022-09-25T16:11:17.347Z,17.50
2022-09-25T16:13:48.741Z,17.50
2022-09-25T16:16:22.927Z,17.40
2022-09-25T16:18:51.248Z,17.40
2022-09-25T16:21:42.777Z,17.40
2022-09-25T16:24:19.660Z,17.30
2022-09-25T16:26:56.047Z,17.30
2022-09-25T16:29:28.487Z,17.30
2022-09-25T16:32:03.539Z,17.20
2022-09-25T16:34:38.237Z,17.20
2022-09-25T16:37:20.919Z,17.20
2022-09-25T16:40:10.986Z,17.10
2022-09-25T16:42:42.357Z,17.10
2022-09-25T16:45:29.528Z,17.10
2022-09-25T16:48:19.308Z,17.10
2022-09-25T16:50:47.868Z,17.00
2022-09-25T16:53:17.189Z,17.00
2022-09-25T16:55:53.849Z,17.00
2022-09-25T16:58:23.363Z,17.00
2022-09-25T17:00:50.831Z,17.00
2022-09-25T17:03:17.635Z,17.00
2022-09-25T17:05:44.488Z,17.00
2022-09-25T17:08:17.583Z,16.90
2022-09-25T17:10:50.735Z,16.90
2022-09-25T17:13:22.934Z,16.90
2022-09-25T17:15:49.740Z,16.90
2022-09-25T17:18:22.442Z,16.90
2022-09-25T17:20:53.994Z,16.90
2022-09-25T17:23:25.783Z,16.90
2022-09-25T17:26:00.515Z,16.80
2022-09-25T17:28:27.947Z,16.80
2022-09-25T17:30:55.060Z,16.80
2022-09-25T17:33:23.249Z,16.80
2022-09-25T17:36:06.901Z,16.80
2022-09-25T17:38:34.174Z,16.70
2022-09-25T17:41:12.175Z,16.70
2022-09-25T17:43:43.163Z,16.70
2022-09-25T17:46:14.906Z,16.60
2022-09-25T17:48:42.654Z,16.60
2022-09-25T17:51:17.207Z,16.60
2022-09-25T17:53:49.020Z,16.60
2022-09-25T17:56:18.464Z,16.60
2022-09-25T17:58:45.482Z,16.50
2022-09-25T18:01:21.856Z,16.50
2022-09-25T18:03:57.688Z,16.50
2022-09-25T18:06:26.331Z,16.50
2022-09-25T18:08:54.873Z,16.40
2022-09-25T18:11:23.120Z,16.40
2022-09-25T18:13:54.315Z,16.40
2022-09-25T18:16:26.116Z,16.30
2022-09-25T18:19:14.076Z,16.40
2022-09-25T18:21:59.349Z,16.30
2022-09-25T18:24:26.180Z,16.30
2022-09-25T18:26:56.470Z,16.20
2022-09-25T18:29:26.097Z,16.20
2022-09-25T18:31:53.027Z,16.20
2022-09-25T18:34:22.827Z,16.20
2022-09-25T18:36:50.103Z,16.10
2022-09-25T18:39:20.044Z,16.10
2022-09-25T18:41:48.298Z,16.10
2022-09-25T18:44:17.774Z,16.10
2022-09-25T18:46:44.960Z,16.10
2022-09-25T18:49:12.463Z,16.10
2022-09-25T18:51:40.075Z,16.10
2022-09-25T18:54:07.250Z,16.00
2022-09-25T18:56:36.548Z,16.00
2022-09-25T18:59:10.421Z,16.00
2022-09-25T19:01:38.904Z,16.00
2022-09-25T19:04:06.672Z,15.90
2022-09-25T19:06:34.068Z,15.90
2022-09-25T19:09:04.999Z,15.90
2022-09-25T19:11:31.839Z,15.90
2022-09-25T19:14:04.718Z,15.90
2022-09-25T19:16:38.333Z,15.80
2022-09-25T19:19:05.592Z,15.80
2022-09-25T19:21:35.174Z,15.80
2022-09-25T19:24:04.625Z,15.80
2022-09-25T19:26:33.602Z,15.70
2022-09-25T19:29:03.222Z,15.70
2022-09-25T19:31:30.137Z,15.70
2022-09-25T19:33:58.597Z,15.70
2022-09-25T19:36:30.855Z,15.70
2022-09-25T19:39:00.765Z,15.70
2022-09-25T19:41:34.018Z,15.60
2022-09-25T19:44:13.605Z,15.70
2022-09-25T19:46:44.759Z,15.70
2022-09-25T19:49:13.657Z,15.60
2022-09-25T19:51:41.193Z,15.60
2022-09-25T19:54:12.157Z,15.60
2022-09-25T19:56:40.905Z,15.60
2022-09-25T19:59:16.083Z,15.60
2022-09-25T20:01:45.797Z,15.50
2022-09-25T20:04:19.072Z,15.50
2022-09-25T20:06:48.686Z,15.50
2022-09-25T20:09:15.846Z,15.50
2022-09-25T20:11:43.083Z,15.40
2022-09-25T20:14:10.199Z,15.50
2022-09-25T20:16:37.617Z,15.40
2022-09-25T20:19:06.552Z,15.40
2022-09-25T20:21:36.077Z,15.40
2022-09-25T20:24:05.639Z,15.40
2022-09-25T20:26:33.208Z,15.30
2022-09-25T20:33:20.008Z,15.30
2022-09-25T20:35:46.750Z,15.20
2022-09-25T20:38:16.897Z,15.30
2022-09-25T20:40:43.684Z,15.30
2022-09-25T20:43:10.511Z,15.30
2022-09-25T20:45:39.581Z,15.30
2022-09-25T20:48:06.434Z,15.20
2022-09-25T20:50:37.066Z,15.20
2022-09-25T20:53:03.844Z,15.20
2022-09-25T20:55:30.661Z,15.20
2022-09-25T20:58:04.722Z,15.20
2022-09-25T21:00:32.109Z,15.20
2022-09-25T21:03:00.038Z,15.20
2022-09-25T21:05:27.035Z,15.20
2022-09-25T21:07:57.128Z,15.20
2022-09-25T21:10:24.037Z,15.10
2022-09-25T21:12:52.234Z,15.10
2022-09-25T21:15:19.052Z,15.10
2022-09-25T21:17:45.773Z,15.10
2022-09-25T21:20:12.524Z,15.10
2022-09-25T21:22:40.209Z,15.10
2022-09-25T21:25:07.404Z,15.10
2022-09-25T21:27:34.165Z,15.00
2022-09-25T21:30:01.224Z,15.00
2022-09-25T21:32:29.233Z,15.00
2022-09-25T21:34:56.248Z,14.90
2022-09-25T21:37:27.911Z,14.90
2022-09-25T21:39:54.652Z,14.90
2022-09-25T21:42:23.617Z,14.90
2022-09-25T21:44:55.094Z,14.90
2022-09-25T21:47:21.945Z,14.80
2022-09-25T21:49:48.904Z,14.80
2022-09-25T21:52:17.814Z,14.80
2022-09-25T21:54:44.661Z,14.70
2022-09-25T21:57:15.910Z,14.70
2022-09-25T21:59:42.714Z,14.70
2022-09-25T22:02:14.964Z,14.70
2022-09-25T22:04:41.774Z,14.60
2022-09-25T22:07:08.494Z,14.60
2022-09-25T22:09:35.369Z,14.60
2022-09-25T22:12:07.491Z,14.60
2022-09-25T22:14:36.525Z,14.60
2022-09-25T22:17:03.446Z,14.60
2022-09-25T22:19:32.947Z,14.60
2022-09-25T22:22:02.183Z,14.50
2022-09-25T22:24:28.914Z,14.40
2022-09-25T22:26:56.389Z,14.40
2022-09-25T22:29:26.494Z,14.40
2022-09-25T22:31:53.531Z,14.40
2022-09-25T22:34:29.672Z,14.40
2022-09-25T22:36:59.898Z,14.40
2022-09-25T22:39:28.183Z,14.40
2022-09-25T22:41:56.045Z,14.40
2022-09-25T22:44:23.602Z,14.40
2022-09-25T22:46:54.137Z,14.40
2022-09-25T22:49:21.083Z,14.40
2022-09-25T22:51:52.223Z,14.30
2022-09-25T22:54:22.436Z,14.40
2022-09-25T22:56:52.478Z,14.30
2022-09-25T22:59:19.698Z,14.30
2022-09-25T23:01:54.833Z,14.30
2022-09-25T23:04:24.012Z,14.30
2022-09-25T23:06:51.385Z,14.30
2022-09-25T23:09:21.291Z,14.30
2022-09-25T23:11:48.672Z,14.20
2022-09-25T23:14:19.721Z,14.20
2022-09-25T23:16:48.670Z,14.20
2022-09-25T23:19:16.262Z,14.20
2022-09-25T23:21:45.710Z,14.10
2022-09-25T23:24:16.863Z,14.10
2022-09-25T23:26:51.557Z,14.10
2022-09-25T23:29:22.165Z,14.10
2022-09-25T23:31:49.887Z,14.10
2022-09-25T23:34:17.972Z,14.10
2022-09-25T23:36:44.894Z,14.10
2022-09-25T23:39:16.284Z,14.10
2022-09-25T23:41:43.154Z,14.10
2022-09-25T23:44:11.032Z,14.10
2022-09-25T23:46:42.003Z,14.10
2022-09-25T23:49:09.867Z,14.10
2022-09-25T23:51:36.900Z,14.00
2022-09-25T23:54:04.216Z,14.00
2022-09-25T23:56:36.209Z,14.00
2022-09-25T23:59:04.402Z,14.00
